Time;durP1;ratioP1;P1;durP2;ratioP2;P2;SDS_P1;SDS_P2;PMS_P1;PMS_P2;Temp;Humidity;BMP_temperature;BMP_pressure;BME280_temperature;BME280_humidity;BME280_pressure;Samples;Min_cycle;Max_cycle;Signal;HPM_P1;HPM_P2
2021/07/22 00:02:05;;;;;;;;;;;;;;;23.30;57.26;102043.13;4996201;28;1014;-71
2021/07/22 00:04:30;;;;;;;;;;;;;;;23.29;57.19;102052.31;4996608;28;990;-71
2021/07/22 00:06:55;;;;;;;;;;;;;;;23.27;57.43;102043.44;4997948;28;1862;-71
2021/07/22 00:09:20;;;;;;;;;;;;;;;23.27;57.64;102043.44;5015708;28;820;-71
2021/07/22 00:11:46;;;;;;;;;;;;;;;23.25;57.15;102045.47;5015626;28;1054;-71
2021/07/22 00:14:11;;;;;;;;;;;;;;;23.24;57.55;102041.03;5015825;28;768;-71
2021/07/22 00:16:36;;;;;;;;;;;;;;;23.23;57.35;102040.16;5015800;28;1918;-71
2021/07/22 00:19:01;;;;;;;;;;;;;;;23.23;57.54;102036.59;5014371;28;1536;-71
2021/07/22 00:21:26;;;;;;;;;;;;;;;23.21;57.48;102034.03;5014854;28;1524;-71
2021/07/22 00:23:51;;;;;;;;;;;;;;;23.19;57.55;102036.91;5015042;28;1448;-71
2021/07/22 00:26:16;;;;;;;;;;;;;;;23.19;57.54;102034.16;5015296;28;970;-71
2021/07/22 00:28:41;;;;;;;;;;;;;;;23.19;57.14;102034.16;5015253;28;1005;-71
2021/07/22 00:31:07;;;;;;;;;;;;;;;23.17;57.45;102044.34;5013422;28;1885;-73
2021/07/22 00:33:32;;;;;;;;;;;;;;;23.17;57.38;102036.19;5015415;28;787;-73
2021/07/22 00:35:58;;;;;;;;;;;;;;;23.18;57.20;102037.03;5015611;28;1923;-72
2021/07/22 00:38:23;;;;;;;;;;;;;;;23.15;57.47;102031.91;5015467;28;1240;-72
2021/07/22 00:40:48;;;;;;;;;;;;;;;23.13;57.44;102034.78;5015102;28;787;-72
2021/07/22 00:43:13;;;;;;;;;;;;;;;23.14;57.39;102032.91;5025924;28;1923;-72
2021/07/22 00:45:38;;;;;;;;;;;;;;;23.12;57.25;102027.63;5014982;28;835;-71
2021/07/22 00:48:03;;;;;;;;;;;;;;;23.11;57.58;102034.06;5031229;28;1902;-72
2021/07/22 00:50:29;;;;;;;;;;;;;;;23.08;57.53;102023.53;4995470;28;951;-72
2021/07/22 00:52:54;;;;;;;;;;;;;;;23.10;57.36;102031.53;5027041;28;902;-72
2021/07/22 00:55:19;;;;;;;;;;;;;;;23.09;57.16;102035.25;5001971;28;1898;-72
2021/07/22 00:57:44;;;;;;;;;;;;;;;23.06;57.09;102028.25;5014528;28;1912;-72
2021/07/22 01:00:09;;;;;;;;;;;;;;;23.04;57.13;102032.97;5015064;28;854;-72
2021/07/22 01:02:34;;;;;;;;;;;;;;;23.03;57.25;102027.69;5015061;28;986;-72
2021/07/22 01:04:59;;;;;;;;;;;;;;;23.04;57.28;102032.13;5015258;28;954;-72
2021/07/22 01:07:24;;;;;;;;;;;;;;;23.02;57.15;102035.00;5008091;28;1937;-72
2021/07/22 01:09:49;;;;;;;;;;;;;;;23.00;56.97;102031.56;5026844;28;1177;-72
2021/07/22 01:12:14;;;;;;;;;;;;;;;22.98;57.01;102021.84;4995207;28;1072;-72
2021/07/22 01:14:41;;;;;;;;;;;;;;;22.98;56.86;102030.00;4995146;28;863;-72
2021/07/22 01:17:06;;;;;;;;;;;;;;;22.97;57.08;102033.72;4995785;28;1977;-72
2021/07/22 01:19:31;;;;;;;;;;;;;;;22.96;57.01;102030.16;5000654;28;2142;-71
2021/07/22 01:21:56;;;;;;;;;;;;;;;22.97;56.83;102025.56;5014741;28;816;-72
2021/07/22 01:24:21;;;;;;;;;;;;;;;22.93;56.97;102030.44;5014688;28;1057;-72
2021/07/22 01:26:46;;;;;;;;;;;;;;;22.93;56.63;102025.00;5014654;28;965;-72
2021/07/22 01:29:11;;;;;;;;;;;;;;;22.93;56.60;102024.19;5014585;28;878;-72
2021/07/22 01:31:36;;;;;;;;;;;;;;;22.90;56.78;102025.34;5029112;28;1927;-71
2021/07/22 01:34:01;;;;;;;;;;;;;;;22.88;56.76;102030.06;5018492;28;872;-71
2021/07/22 01:36:27;;;;;;;;;;;;;;;22.88;56.93;102027.34;5050243;28;1955;-71
2021/07/22 01:38:52;;;;;;;;;;;;;;;22.87;56.93;102020.19;5018480;28;942;-71
2021/07/22 01:41:17;;;;;;;;;;;;;;;22.89;56.70;102020.91;5018416;28;878;-71
2021/07/22 01:43:42;;;;;;;;;;;;;;;22.87;56.90;102025.63;5017955;28;1832;-71
2021/07/22 01:46:07;;;;;;;;;;;;;;;22.87;56.75;102024.78;5018309;28;856;-71
2021/07/22 01:48:32;;;;;;;;;;;;;;;22.84;56.73;102024.06;5018208;28;994;-71
2021/07/22 01:50:57;;;;;;;;;;;;;;;22.84;56.59;102026.78;5033488;28;1177;-71
2021/07/22 01:53:22;;;;;;;;;;;;;;;22.85;56.72;102031.22;5018235;28;1870;-71
2021/07/22 01:55:47;;;;;;;;;;;;;;;22.82;57.25;102019.78;5050024;28;1957;-71
2021/07/22 01:58:12;;;;;;;;;;;;;;;22.82;56.81;102023.34;5018638;28;1169;-71
2021/07/22 02:00:37;;;;;;;;;;;;;;;22.82;56.77;102020.63;5002362;28;1996;-71
2021/07/22 02:03:02;;;;;;;;;;;;;;;22.82;56.87;102019.78;5030244;28;1295;-71
2021/07/22 02:05:28;;;;;;;;;;;;;;;22.83;56.81;102018.78;4998650;28;986;-71
2021/07/22 02:07:53;;;;;;;;;;;;;;;22.81;56.89;102020.78;4998601;28;780;-71
2021/07/22 02:10:20;;;;;;;;;;;;;;;22.79;56.83;102017.38;5011941;28;1876;-71
2021/07/22 02:12:45;;;;;;;;;;;;;;;22.79;56.90;102011.94;5018188;28;854;-71
2021/07/22 02:15:10;;;;;;;;;;;;;;;22.79;57.01;102012.78;5033231;28;1973;-70
2021/07/22 02:17:35;;;;;;;;;;;;;;;22.75;57.06;102010.50;5017985;28;883;-71
2021/07/22 02:20:00;;;;;;;;;;;;;;;22.77;57.08;102005.78;5018265;28;847;-71
2021/07/22 02:22:25;;;;;;;;;;;;;;;22.75;57.17;102008.63;5022098;28;1909;-71
2021/07/22 02:24:50;;;;;;;;;;;;;;;22.74;57.18;102017.81;5017772;28;1002;-71
2021/07/22 02:27:15;;;;;;;;;;;;;;;22.72;57.11;102017.09;5017661;28;899;-71
2021/07/22 02:29:40;;;;;;;;;;;;;;;22.70;57.06;102015.53;5017630;28;882;-71
2021/07/22 02:32:06;;;;;;;;;;;;;;;22.69;57.41;102011.09;5049450;28;903;-71
2021/07/22 02:34:31;;;;;;;;;;;;;;;22.68;57.36;102018.41;5017088;28;2010;-71
2021/07/22 02:36:56;;;;;;;;;;;;;;;22.71;57.12;102014.53;5017080;28;1957;-71
2021/07/22 02:39:21;;;;;;;;;;;;;;;22.66;57.02;102006.81;5017660;28;930;-72
2021/07/22 02:41:46;;;;;;;;;;;;;;;22.67;56.89;102013.09;5016826;28;847;-72
2021/07/22 02:44:11;;;;;;;;;;;;;;;22.66;57.12;102011.41;5017305;28;906;-72
2021/07/22 02:46:36;;;;;;;;;;;;;;;22.65;57.18;102010.53;5002525;28;1966;-71
2021/07/22 02:49:01;;;;;;;;;;;;;;;22.61;57.02;102011.84;5029423;28;815;-71
2021/07/22 02:51:26;;;;;;;;;;;;;;;22.60;57.09;102012.84;5029407;28;1520;-71
2021/07/22 02:53:52;;;;;;;;;;;;;;;22.63;57.02;102019.84;4997659;28;1045;-71
2021/07/22 02:56:17;;;;;;;;;;;;;;;22.61;57.02;102021.84;4997578;28;1898;-71
2021/07/22 02:58:42;;;;;;;;;;;;;;;22.58;57.23;102019.41;5014192;28;1859;-71
2021/07/22 03:01:07;;;;;;;;;;;;;;;22.57;57.04;102020.47;5032022;28;1305;-71
2021/07/22 03:03:32;;;;;;;;;;;;;;;22.53;57.14;102022.59;5017048;28;799;-71
2021/07/22 03:05:57;;;;;;;;;;;;;;;22.54;57.10;102023.47;5009728;28;1836;-71
2021/07/22 03:08:22;;;;;;;;;;;;;;;22.54;57.17;102028.91;4997515;28;1894;-71
2021/07/22 03:10:48;;;;;;;;;;;;;;;22.54;56.93;102028.91;4997368;28;982;-72
2021/07/22 03:13:13;;;;;;;;;;;;;;;22.53;57.04;102025.31;5028575;28;1300;-72
2021/07/22 03:15:38;;;;;;;;;;;;;;;22.49;57.16;102024.75;5000991;28;1981;-72
2021/07/22 03:18:03;;;;;;;;;;;;;;;22.52;56.95;102020.91;5031713;28;1068;-71
2021/07/22 03:20:28;;;;;;;;;;;;;;;22.54;56.92;102031.63;5016612;28;1034;-72
2021/07/22 03:22:53;;;;;;;;;;;;;;;22.51;56.70;102025.47;5016716;28;918;-71
2021/07/22 03:25:18;;;;;;;;;;;;;;;22.48;56.95;102035.78;5031820;28;1232;-71
2021/07/22 03:27:44;;;;;;;;;;;;;;;22.43;56.98;102022.63;5014943;28;2122;-71
2021/07/22 03:30:09;;;;;;;;;;;;;;;22.45;56.92;102020.63;5016442;28;1018;-72
2021/07/22 03:32:34;;;;;;;;;;;;;;;22.42;56.95;102023.63;5016832;28;993;-71
2021/07/22 03:34:59;;;;;;;;;;;;;;;22.44;56.93;102021.63;5016842;28;824;-71
2021/07/22 03:37:24;;;;;;;;;;;;;;;22.43;56.98;102025.34;5019906;28;2165;-71
2021/07/22 03:39:49;;;;;;;;;;;;;;;22.42;56.70;102023.63;5016528;28;1088;-72
2021/07/22 03:42:14;;;;;;;;;;;;;;;22.41;56.92;102021.91;5016241;28;977;-72
2021/07/22 03:44:39;;;;;;;;;;;;;;;22.40;56.81;102025.63;5016440;28;863;-72
2021/07/22 03:47:05;;;;;;;;;;;;;;;22.39;56.98;102015.78;5015665;28;1963;-72
2021/07/22 03:49:30;;;;;;;;;;;;;;;22.37;56.93;102019.66;5016292;28;767;-72
2021/07/22 03:51:55;;;;;;;;;;;;;;;22.36;56.72;102016.09;5015822;28;820;-72
2021/07/22 03:54:20;;;;;;;;;;;;;;;22.39;56.73;102013.06;5012777;28;1841;-71
2021/07/22 03:56:45;;;;;;;;;;;;;;;22.37;56.87;102011.53;4996325;28;1957;-71
2021/07/22 03:59:10;;;;;;;;;;;;;;;22.38;56.98;102013.22;5042732;28;1904;-71
2021/07/22 04:01:35;;;;;;;;;;;;;;;22.38;56.93;102007.78;5031015;28;1354;-71
2021/07/22 04:04:00;;;;;;;;;;;;;;;22.36;56.79;102010.66;5015926;28;974;-71
2021/07/22 04:06:26;;;;;;;;;;;;;;;22.34;56.95;102011.81;4996785;28;1990;-71
2021/07/22 04:08:51;;;;;;;;;;;;;;;22.33;56.86;102016.38;4996310;28;819;-71
2021/07/22 04:11:16;;;;;;;;;;;;;;;22.34;56.74;102019.97;4996228;28;919;-72
2021/07/22 04:13:41;;;;;;;;;;;;;;;22.34;56.81;102018.09;4996285;28;915;-71
2021/07/22 04:16:06;;;;;;;;;;;;;;;22.33;56.65;102010.94;4996068;28;1914;-71
2021/07/22 04:18:31;;;;;;;;;;;;;;;22.32;56.83;102014.66;5045933;28;1875;-71
2021/07/22 04:20:56;;;;;;;;;;;;;;;22.30;56.79;102016.66;5015657;28;875;-71
2021/07/22 04:23:21;;;;;;;;;;;;;;;22.29;56.86;102014.97;5030689;28;1372;-70
2021/07/22 04:25:46;;;;;;;;;;;;;;;22.29;56.91;102024.97;5015586;28;1048;-71
2021/07/22 04:28:12;;;;;;;;;;;;;;;22.28;56.79;102029.53;5015511;28;882;-71
2021/07/22 04:30:37;;;;;;;;;;;;;;;22.29;56.84;102020.38;5007194;28;1869;-71
2021/07/22 04:33:02;;;;;;;;;;;;;;;22.29;56.77;102028.53;4995792;28;869;-71
2021/07/22 04:35:27;;;;;;;;;;;;;;;22.27;56.70;102022.38;4996134;28;1952;-72
2021/07/22 04:37:52;;;;;;;;;;;;;;;22.29;56.80;102028.53;4995915;28;974;-71
2021/07/22 04:40:18;;;;;;;;;;;;;;;22.30;56.75;102027.53;4997771;28;1260;-71
2021/07/22 04:42:43;;;;;;;;;;;;;;;22.29;56.79;102031.25;5030158;28;1673;-71
2021/07/22 04:45:08;;;;;;;;;;;;;;;22.29;56.67;102027.69;5015210;28;827;-71
2021/07/22 04:47:33;;;;;;;;;;;;;;;22.33;56.76;102032.69;5022483;28;1677;-71
2021/07/22 04:49:58;;;;;;;;;;;;;;;22.31;56.67;102029.25;5014629;28;1316;-71
2021/07/22 04:52:23;;;;;;;;;;;;;;;22.30;56.74;102032.97;5014757;28;1336;-71
2021/07/22 04:54:48;;;;;;;;;;;;;;;22.32;56.77;102030.97;5014273;28;1569;-69
2021/07/22 04:57:13;;;;;;;;;;;;;;;22.32;56.90;102030.97;5014912;28;1902;-69
2021/07/22 04:59:39;;;;;;;;;;;;;;;22.38;56.63;102034.97;5014932;28;839;-69
2021/07/22 05:02:04;;;;;;;;;;;;;;;22.38;56.81;102027.66;5029791;28;1901;-68
2021/07/22 05:04:29;;;;;;;;;;;;;;;22.47;63.00;102026.75;5014586;28;1451;-67
2021/07/22 05:06:54;;;;;;;;;;;;;;;22.51;61.38;102030.91;5030426;28;1984;-67
2021/07/22 05:09:19;;;;;;;;;;;;;;;22.55;60.30;102033.34;5030320;28;847;-66
2021/07/22 05:11:44;;;;;;;;;;;;;;;22.54;59.71;102031.63;5030767;28;1493;-67
2021/07/22 05:14:09;;;;;;;;;;;;;;;22.51;59.11;102030.91;5014725;28;1551;-67
2021/07/22 05:16:34;;;;;;;;;;;;;;;22.51;59.15;102033.63;5014434;28;1910;-67
2021/07/22 05:18:59;;;;;;;;;;;;;;;22.50;58.63;102034.63;5045853;28;2000;-67
2021/07/22 05:21:25;;;;;;;;;;;;;;;22.50;58.27;102033.78;5014664;28;1517;-67
2021/07/22 05:23:50;;;;;;;;;;;;;;;22.51;58.33;102036.34;5015030;28;998;-67
2021/07/22 05:26:16;;;;;;;;;;;;;;;22.53;58.46;102038.91;5014880;28;886;-67
2021/07/22 05:28:41;;;;;;;;;;;;;;;22.57;58.12;102034.03;5015126;28;1514;-67
2021/07/22 05:31:06;;;;;;;;;;;;;;;22.54;58.02;102045.19;4998510;28;1933;-67
2021/07/22 05:33:31;;;;;;;;;;;;;;;22.56;57.69;102049.50;5026736;28;2066;-67
2021/07/22 05:35:56;;;;;;;;;;;;;;;22.57;57.67;102045.78;4995370;28;1898;-67
2021/07/22 05:38:21;;;;;;;;;;;;;;;22.58;57.47;102047.44;4994986;28;980;-67
2021/07/22 05:40:46;;;;;;;;;;;;;;;22.58;57.67;102046.59;4995144;28;1065;-67
2021/07/22 05:43:11;;;;;;;;;;;;;;;22.55;57.66;102052.34;5012504;28;1935;-67
2021/07/22 05:45:36;;;;;;;;;;;;;;;22.57;57.66;102051.19;5014803;28;804;-67
2021/07/22 05:48:01;;;;;;;;;;;;;;;22.57;57.62;102048.47;5014545;28;796;-67
2021/07/22 05:50:26;;;;;;;;;;;;;;;22.47;57.29;102056.66;5014552;28;894;-66
2021/07/22 05:52:51;;;;;;;;;;;;;;;22.34;57.69;102053.41;5014842;28;990;-67
2021/07/22 05:55:17;;;;;;;;;;;;;;;22.40;57.39;102052.78;4998325;28;1948;-66
2021/07/22 05:57:42;;;;;;;;;;;;;;;22.49;56.84;102045.63;4997739;28;1481;-67
2021/07/22 06:00:09;;;;;;;;;;;;;;;22.47;57.11;102043.06;5013878;28;1396;-69
2021/07/22 06:02:34;;;;;;;;;;;;;;;22.18;57.51;102050.44;5013981;28;1264;-66
2021/07/22 06:05:01;;;;;;;;;;;;;;;22.28;57.36;102040.41;5013761;28;1472;-68
2021/07/22 06:07:26;;;;;;;;;;;;;;;22.42;57.54;102052.66;5013440;28;1881;-68
2021/07/22 06:09:51;;;;;;;;;;;;;;;22.40;57.22;102052.78;5006163;28;1478;-69
2021/07/22 06:12:16;;;;;;;;;;;;;;;22.34;57.25;102055.25;5009436;28;1668;-69
2021/07/22 06:14:41;;;;;;;;;;;;;;;22.31;56.92;102061.84;5010076;28;2373;-69
2021/07/22 06:17:06;;;;;;;;;;;;;;;22.27;57.05;102056.84;5014552;28;2259;-70
2021/07/22 06:19:32;;;;;;;;;;;;;;;22.29;57.50;102054.84;5014559;28;2068;-69
2021/07/22 06:21:57;;;;;;;;;;;;;;;22.42;56.83;102052.66;5016689;28;1709;-69
2021/07/22 06:24:22;;;;;;;;;;;;;;;22.31;56.90;102056.41;5018018;28;1857;-69
2021/07/22 06:26:47;;;;;;;;;;;;;;;22.26;57.05;102045.13;5049086;28;1563;-70
2021/07/22 06:29:12;;;;;;;;;;;;;;;22.29;57.04;102058.41;5016654;28;1337;-69
2021/07/22 06:31:38;;;;;;;;;;;;;;;22.29;57.26;102049.41;5016181;28;2085;-69
2021/07/22 06:34:03;;;;;;;;;;;;;;;22.29;56.92;102057.56;5016905;28;1367;-70
2021/07/22 06:36:28;;;;;;;;;;;;;;;22.25;56.83;102042.53;5048539;28;1960;-69
2021/07/22 06:38:53;;;;;;;;;;;;;;;22.15;57.25;102054.31;5016376;28;1588;-69
2021/07/22 06:41:18;;;;;;;;;;;;;;;22.08;57.25;102053.16;5017293;28;1186;-69
2021/07/22 06:43:43;;;;;;;;;;;;;;;22.07;57.39;102047.88;5017030;28;1809;-69
2021/07/22 06:46:08;;;;;;;;;;;;;;;22.10;57.12;102045.72;5016350;28;1640;-69
2021/07/22 06:48:33;;;;;;;;;;;;;;;22.03;57.46;102054.63;5048200;28;1275;-69
2021/07/22 06:50:58;;;;;;;;;;;;;;;21.99;57.47;102050.44;5016652;28;1434;-69
2021/07/22 06:53:23;;;;;;;;;;;;;;;21.96;57.48;102045.28;5016417;28;1359;-69
2021/07/22 06:55:49;;;;;;;;;;;;;;;21.91;58.00;102051.13;5015063;28;1956;-69
2021/07/22 06:58:14;;;;;;;;;;;;;;;21.71;58.24;102055.72;5015997;28;1703;-69
2021/07/22 07:00:39;;;;;;;;;;;;;;;21.86;57.80;102058.00;5016308;28;2150;-69
2021/07/22 07:03:04;;;;;;;;;;;;;;;21.93;57.27;102051.84;5016077;28;1220;-69
2021/07/22 07:05:29;;;;;;;;;;;;;;;22.05;57.11;102053.44;5016015;28;1418;-69
2021/07/22 07:07:54;;;;;;;;;;;;;;;22.06;56.61;102051.56;5015922;28;1545;-69
2021/07/22 07:10:19;;;;;;;;;;;;;;;21.98;56.85;102052.28;5048130;28;1252;-69
2021/07/22 07:12:44;;;;;;;;;;;;;;;22.09;57.11;102062.16;5015616;28;1285;-69
2021/07/22 07:15:09;;;;;;;;;;;;;;;22.23;56.61;102050.84;5047964;28;1376;-69
2021/07/22 07:17:34;;;;;;;;;;;;;;;22.22;56.85;102059.13;5015415;28;1910;-69
2021/07/22 07:19:59;;;;;;;;;;;;;;;22.31;56.71;102050.97;5015681;28;1768;-69
2021/07/22 07:22:24;;;;;;;;;;;;;;;22.23;56.31;102061.69;5015748;28;1549;-69
2021/07/22 07:24:50;;;;;;;;;;;;;;;22.32;57.02;102065.41;5015730;28;1619;-69
2021/07/22 07:27:15;;;;;;;;;;;;;;;22.12;56.10;102064.59;5015615;28;1358;-69
2021/07/22 07:29:40;;;;;;;;;;;;;;;21.92;56.07;102061.00;5047548;28;1502;-69
2021/07/22 07:32:05;;;;;;;;;;;;;;;21.98;56.15;102059.56;5013640;28;1734;-69
2021/07/22 07:34:30;;;;;;;;;;;;;;;22.00;55.67;102061.19;5015636;28;1651;-69
2021/07/22 07:36:56;;;;;;;;;;;;;;;21.87;55.60;102066.00;5014479;28;1910;-69
2021/07/22 07:39:21;;;;;;;;;;;;;;;21.96;55.12;102061.56;5014652;28;1385;-69
2021/07/22 07:41:46;;;;;;;;;;;;;;;21.95;55.02;102060.72;5015455;28;1558;-69
2021/07/22 07:44:11;;;;;;;;;;;;;;;22.16;55.99;102066.03;5015229;28;1801;-69
2021/07/22 07:46:36;;;;;;;;;;;;;;;22.31;55.24;102064.56;5015369;28;1457;-69
2021/07/22 07:49:02;;;;;;;;;;;;;;;22.25;54.88;102056.97;5015227;28;1343;-69
2021/07/22 07:51:27;;;;;;;;;;;;;;;22.25;54.58;102069.69;5015183;28;1452;-69
2021/07/22 07:53:52;;;;;;;;;;;;;;;22.15;54.33;102072.44;5014788;28;1529;-69
2021/07/22 07:56:18;;;;;;;;;;;;;;;22.10;54.24;102069.31;5014567;28;1914;-69
2021/07/22 07:58:43;;;;;;;;;;;;;;;22.06;54.12;102073.31;5014560;28;1584;-69
2021/07/22 08:01:08;;;;;;;;;;;;;;;22.14;54.49;102076.16;5012672;28;1500;-69
2021/07/22 08:03:34;;;;;;;;;;;;;;;22.31;53.81;102066.41;5046035;28;1263;-69
2021/07/22 08:05:59;;;;;;;;;;;;;;;22.38;54.29;102068.41;5014488;28;1495;-69
2021/07/22 08:08:24;;;;;;;;;;;;;;;22.29;53.40;102074.72;5013608;28;1545;-69
2021/07/22 08:10:50;;;;;;;;;;;;;;;22.20;54.31;102074.75;5011966;28;2070;-69
2021/07/22 08:13:15;;;;;;;;;;;;;;;22.19;54.05;102076.59;5011440;28;1559;-69
2021/07/22 08:15:40;;;;;;;;;;;;;;;22.16;54.63;102071.44;5015437;28;1981;-69
2021/07/22 08:18:05;;;;;;;;;;;;;;;22.37;57.87;102074.84;5047129;28;1540;-69
2021/07/22 08:20:30;;;;;;;;;;;;;;;22.51;57.11;102068.94;5015544;28;2001;-69
2021/07/22 08:22:55;;;;;;;;;;;;;;;22.55;58.94;102076.81;5014270;28;1713;-68
2021/07/22 08:25:20;;;;;;;;;;;;;;;22.53;58.17;102071.50;5014138;28;1655;-69
2021/07/22 08:27:46;;;;;;;;;;;;;;;22.49;56.91;102072.81;5015315;28;1715;-68
2021/07/22 08:30:11;;;;;;;;;;;;;;;22.55;57.50;102068.66;5017241;28;1742;-70
2021/07/22 08:32:36;;;;;;;;;;;;;;;22.55;56.52;102069.50;5015321;28;1717;-69
2021/07/22 08:35:01;;;;;;;;;;;;;;;22.51;56.44;102068.94;5049050;28;1632;-69
2021/07/22 08:37:26;;;;;;;;;;;;;;;22.54;56.42;102067.78;5024234;28;1961;-69
2021/07/22 08:39:57;;;;;;;;;;;;;;;22.54;55.41;102069.66;5014641;28;1258;-69
2021/07/22 08:42:22;;;;;;;;;;;;;;;22.52;55.71;102070.66;5015446;28;1444;-69
2021/07/22 08:44:47;;;;;;;;;;;;;;;22.52;55.68;102075.22;5015370;28;1571;-67
2021/07/22 08:47:12;;;;;;;;;;;;;;;22.49;55.43;102068.22;5020419;28;1634;-67
2021/07/22 08:49:37;;;;;;;;;;;;;;;22.50;55.31;102069.94;5017240;28;1383;-68
2021/07/22 08:52:02;;;;;;;;;;;;;;;22.51;55.10;102073.53;5016213;28;1868;-69
2021/07/22 08:54:27;;;;;;;;;;;;;;;22.52;55.04;102077.94;5016073;28;1329;-68
2021/07/22 08:56:52;;;;;;;;;;;;;;;22.54;53.90;102066.94;5017934;28;1966;-69
2021/07/22 08:59:18;;;;;;;;;;;;;;;22.58;54.00;102060.19;5010991;28;1561;-67
2021/07/22 09:01:43;;;;;;;;;;;;;;;22.51;52.83;102063.50;5020235;28;1405;-67
2021/07/22 09:04:08;;;;;;;;;;;;;;;22.55;52.72;102064.06;5016062;28;1495;-68
2021/07/22 09:06:33;;;;;;;;;;;;;;;22.49;52.53;102070.09;5016899;28;1416;-68
2021/07/22 09:08:58;;;;;;;;;;;;;;;22.57;53.35;102056.63;5019271;28;1808;-68
2021/07/22 09:11:23;;;;;;;;;;;;;;;22.59;53.38;102057.31;5017067;28;1553;-68
2021/07/22 09:13:49;;;;;;;;;;;;;;;22.62;52.90;102048.00;5047175;28;1377;-69
2021/07/22 09:16:15;;;;;;;;;;;;;;;22.56;52.77;102064.94;5015649;28;1922;-69
2021/07/22 09:18:40;;;;;;;;;;;;;;;22.41;51.70;102059.09;5049880;28;1631;-69
2021/07/22 09:21:05;;;;;;;;;;;;;;;22.41;51.59;102062.66;5011350;28;2010;-67
2021/07/22 09:23:31;;;;;;;;;;;;;;;22.43;51.49;102062.50;5013334;28;1330;-68
2021/07/22 09:25:56;;;;;;;;;;;;;;;22.44;52.59;102067.81;5013461;28;1996;-68
2021/07/22 09:28:21;;;;;;;;;;;;;;;22.49;52.80;102060.06;5048889;28;1460;-67
2021/07/22 09:30:46;;;;;;;;;;;;;;;22.57;52.22;102058.50;5013826;28;1568;-68
2021/07/22 09:33:11;;;;;;;;;;;;;;;22.59;52.17;102059.19;5013988;28;1952;-68
2021/07/22 09:35:37;;;;;;;;;;;;;;;22.59;52.04;102070.03;5014602;28;1952;-67
2021/07/22 09:38:02;;;;;;;;;;;;;;;22.55;52.26;102074.94;5045775;28;1927;-68
2021/07/22 09:40:29;;;;;;;;;;;;;;;22.57;52.26;102077.50;5014558;28;1195;-68
2021/07/22 09:42:54;;;;;;;;;;;;;;;22.61;52.20;102073.47;5013992;28;1806;-67
2021/07/22 09:45:19;;;;;;;;;;;;;;;22.62;52.62;102069.75;5014415;28;1635;-68
2021/07/22 09:47:45;;;;;;;;;;;;;;;22.60;52.13;102078.06;5014318;28;1742;-68
2021/07/22 09:50:10;;;;;;;;;;;;;;;22.57;52.07;102075.66;5014534;28;2078;-68
2021/07/22 09:52:35;;;;;;;;;;;;;;;22.52;52.03;102081.53;5017661;28;1312;-68
2021/07/22 09:55:00;;;;;;;;;;;;;;;22.45;50.78;102079.53;5017240;28;1623;-68
2021/07/22 09:57:27;;;;;;;;;;;;;;;22.47;51.27;102083.81;5018103;28;1958;-68
2021/07/22 09:59:52;;;;;;;;;;;;;;;22.44;51.20;102073.25;5018092;28;1835;-68
2021/07/22 10:02:18;;;;;;;;;;;;;;;22.42;50.80;102080.69;5018002;28;1504;-68
2021/07/22 10:04:43;;;;;;;;;;;;;;;22.46;51.30;102082.09;5018001;28;1572;-68
2021/07/22 10:07:08;;;;;;;;;;;;;;;22.49;51.85;102086.38;5023060;28;1729;-68
2021/07/22 10:09:36;;;;;;;;;;;;;;;22.48;51.61;102080.09;5018651;28;2156;-68
2021/07/22 10:12:02;;;;;;;;;;;;;;;22.49;51.75;102087.25;5026502;28;1641;-68
2021/07/22 10:14:27;;;;;;;;;;;;;;;22.51;51.67;102074.38;5018919;28;1527;-68
2021/07/22 10:16:52;;;;;;;;;;;;;;;22.52;52.51;102081.53;5015831;28;2151;-67
2021/07/22 10:19:17;;;;;;;;;;;;;;;22.57;52.46;102086.53;5017409;28;1390;-68
2021/07/22 10:21:42;;;;;;;;;;;;;;;22.61;51.98;102077.03;5016084;28;1381;-68
2021/07/22 10:24:07;;;;;;;;;;;;;;;22.59;52.62;102080.91;5014717;28;1573;-68
2021/07/22 10:26:39;;;;;;;;;;;;;;;22.52;51.48;102075.22;5017183;28;1740;-68
2021/07/22 10:29:04;;;;;;;;;;;;;;;22.43;51.34;102067.94;5016958;28;1489;-68
2021/07/22 10:31:29;;;;;;;;;;;;;;;22.47;51.79;102067.50;5016587;28;1671;-68
2021/07/22 10:33:54;;;;;;;;;;;;;;;22.47;51.97;102075.66;5016206;28;1579;-68
2021/07/22 10:36:20;;;;;;;;;;;;;;;22.52;52.06;102069.78;5048040;28;1905;-68
2021/07/22 10:38:46;;;;;;;;;;;;;;;22.52;51.70;102073.38;5048415;28;1401;-68
2021/07/22 10:41:11;;;;;;;;;;;;;;;22.50;51.76;102080.81;5016111;28;1509;-68
2021/07/22 10:43:37;;;;;;;;;;;;;;;22.49;51.61;102068.22;5016354;28;1416;-68
2021/07/22 10:46:02;;;;;;;;;;;;;;;22.50;52.23;102069.94;5015790;28;1633;-68
2021/07/22 10:48:27;;;;;;;;;;;;;;;22.48;51.32;102068.38;5015836;28;1579;-68
2021/07/22 10:50:52;;;;;;;;;;;;;;;22.50;51.97;102067.22;5016400;28;1416;-68
2021/07/22 10:53:17;;;;;;;;;;;;;;;22.55;51.53;102068.66;5016070;28;1460;-68
2021/07/22 10:55:43;;;;;;;;;;;;;;;22.55;51.40;102063.22;5016205;28;1894;-68
2021/07/22 10:58:08;;;;;;;;;;;;;;;22.55;51.49;102068.66;5013796;28;1790;-68
2021/07/22 11:00:33;;;;;;;;;;;;;;;22.52;51.51;102061.66;5016126;28;1464;-68
2021/07/22 11:02:58;;;;;;;;;;;;;;;22.50;51.45;102059.06;5015635;28;1492;-68
2021/07/22 11:05:24;;;;;;;;;;;;;;;22.55;51.45;102058.66;5047905;28;1424;-68
2021/07/22 11:07:49;;;;;;;;;;;;;;;22.55;51.35;102071.38;5016081;28;1494;-68
2021/07/22 11:10:14;;;;;;;;;;;;;;;22.59;51.50;102053.75;5012543;28;1812;-68
2021/07/22 11:12:39;;;;;;;;;;;;;;;22.57;51.06;102050.34;5048509;28;1400;-68
2021/07/22 11:15:04;;;;;;;;;;;;;;;22.51;50.32;102052.63;5016104;28;1360;-68
2021/07/22 11:17:30;;;;;;;;;;;;;;;22.41;50.93;102051.78;5015579;28;1914;-68
2021/07/22 11:19:55;;;;;;;;;;;;;;;22.48;50.55;102052.94;5048026;28;1413;-68
2021/07/22 11:22:20;;;;;;;;;;;;;;;22.50;50.27;102050.94;5004768;28;1593;-68
2021/07/22 11:24:45;;;;;;;;;;;;;;;22.50;50.80;102055.50;5015363;28;1254;-68
2021/07/22 11:27:10;;;;;;;;;;;;;;;22.40;50.01;102050.06;5016318;28;1645;-68
2021/07/22 11:29:35;;;;;;;;;;;;;;;22.45;51.31;102049.66;5015158;28;1486;-68
2021/07/22 11:32:02;;;;;;;;;;;;;;;22.50;50.21;102045.50;5015734;28;1523;-68
2021/07/22 11:34:27;;;;;;;;;;;;;;;22.50;50.79;102039.19;5014687;28;1649;-68
2021/07/22 11:36:52;;;;;;;;;;;;;;;22.49;50.20;102045.63;5046469;28;1898;-68
2021/07/22 11:39:17;;;;;;;;;;;;;;;22.45;50.65;102042.34;5015275;28;1521;-68
2021/07/22 11:41:43;;;;;;;;;;;;;;;22.52;50.89;102040.78;5015271;28;1680;-68
2021/07/22 11:44:10;;;;;;;;;;;;;;;22.54;50.20;102037.06;5015671;28;1421;-68
2021/07/22 11:46:35;;;;;;;;;;;;;;;22.55;50.27;102036.06;5011209;28;1569;-68
2021/07/22 11:49:00;;;;;;;;;;;;;;;22.59;50.12;102042.88;5015498;28;1999;-68
2021/07/22 11:51:25;;;;;;;;;;;;;;;22.52;49.71;102038.06;5014512;28;1538;-68
2021/07/22 11:53:50;;;;;;;;;;;;;;;22.54;50.48;102042.47;5015207;28;1574;-68
2021/07/22 11:56:16;;;;;;;;;;;;;;;22.52;50.33;102032.63;5015810;28;1961;-68
2021/07/22 11:58:41;;;;;;;;;;;;;;;22.55;50.60;102036.06;5015364;28;1907;-68
2021/07/22 12:01:06;;;;;;;;;;;;;;;22.49;49.83;102032.91;5047106;28;1677;-67
2021/07/22 12:03:31;;;;;;;;;;;;;;;22.56;50.20;102027.75;5014805;28;1625;-67
2021/07/22 12:05:56;;;;;;;;;;;;;;;22.60;49.82;102031.00;5011809;28;1841;-68
2021/07/22 12:08:21;;;;;;;;;;;;;;;22.58;49.93;102022.13;5015485;28;1739;-67
2021/07/22 12:10:46;;;;;;;;;;;;;;;22.62;49.74;102031.72;5046963;28;1628;-68
2021/07/22 12:13:12;;;;;;;;;;;;;;;;;;5014539;28;1334;-68
2021/07/22 12:15:37;;;;;;;;;;;;;;;22.66;49.83;102024.97;5012337;28;1977;-68
2021/07/22 12:18:02;;;;;;;;;;;;;;;22.60;49.71;102017.41;5014172;28;1381;-68
2021/07/22 12:20:27;;;;;;;;;;;;;;;22.64;49.60;102024.28;5014671;28;1358;-69
2021/07/22 12:22:52;;;;;;;;;;;;;;;22.68;49.47;102021.13;5046554;28;1353;-68
2021/07/22 12:25:17;;;;;;;;;;;;;;;22.70;49.77;102023.69;5014203;28;1845;-69
2021/07/22 12:27:42;;;;;;;;;;;;;;;22.71;49.49;102019.97;5014648;28;1405;-68
2021/07/22 12:30:08;;;;;;;;;;;;;;;22.73;49.52;102021.53;5014562;28;1346;-69
2021/07/22 12:32:33;;;;;;;;;;;;;;;22.73;49.32;102016.09;5046076;28;1612;-68
2021/07/22 12:34:58;;;;;;;;;;;;;;;22.79;49.32;102018.22;5013268;28;1681;-69
2021/07/22 12:37:23;;;;;;;;;;;;;;;22.80;49.23;102021.78;5016287;28;1898;-68
2021/07/22 12:39:48;;;;;;;;;;;;;;;22.82;48.77;102008.91;5014934;28;1344;-68